WetterOnline ( https://www.wetteronline.ch )

Wetter aktuell Weiden

Aktuelles Wetter: Weiden (439m)

6-stündlich | Neueste Meldungen
Ortszeit Temperatur Wetter
Mi, 08.07. 8:00 14.7° C bedeckt
Mi, 08.07. 2:00 11.4° C bedeckt
Di, 07.07. 20:00 17.9° C bewölkt
Di, 07.07. 14:00 17.2° C bewölkt
Di, 07.07. 8:00 11.6° C wolkenlos
Di, 07.07. 2:00 9.8° C wolkenlos
Mo, 06.07. 20:00 17.7° C leicht bewölkt
Mo, 06.07. 14:00 20.0° C leicht bewölkt
Ortszeit Temperatur Wetter
Mi, 08.07. 11:30 17.7° C bedeckt
Mi, 08.07. 11:20 17.7° C bedeckt
Mi, 08.07. 11:10 18.3° C bewölkt
Mi, 08.07. 11:00 18.2° C bedeckt
Mi, 08.07. 10:50 18.2° C bedeckt
Mi, 08.07. 10:40 18.2° C bedeckt
Mi, 08.07. 10:30 18.1° C bewölkt
Mi, 08.07. 10:00 17.2° C bewölkt
Ortszeit Relative Feuchte Sichtweite
Mi, 08.07. 8:00 65% 50 km
Mi, 08.07. 2:00 72% 60 km
Di, 07.07. 20:00 42% >70 km
Di, 07.07. 14:00 45% 65 km
Di, 07.07. 8:00 70% 50 km
Di, 07.07. 2:00 77% 55 km
Mo, 06.07. 20:00 41% 55 km
Mo, 06.07. 14:00 40% 45 km
Ortszeit Relative Feuchte Sichtweite
Mi, 08.07. 11:30 49% 60 km
Mi, 08.07. 11:20 49% -
Mi, 08.07. 11:10 49% -
Mi, 08.07. 11:00 49% 55 km
Mi, 08.07. 10:50 49% -
Mi, 08.07. 10:40 51% -
Mi, 08.07. 10:30 51% 60 km
Mi, 08.07. 10:00 57% 45 km
Ortszeit Niederschlagsmenge Niederschlagsart
Mi, 08.07. 8:00 0.0 l/m2 in 12 Std. -
Mi, 08.07. 2:00 0.0 l/m2 in 6 Std. -
Di, 07.07. 20:00 0.0 l/m2 in 12 Std. -
Di, 07.07. 14:00 0.0 l/m2 in 6 Std. -
Di, 07.07. 8:00 0.0 l/m2 in 12 Std. -
Di, 07.07. 2:00 0.0 l/m2 in 6 Std. -
Mo, 06.07. 20:00 0.8 l/m2 in 12 Std. -
Mo, 06.07. 14:00 0.8 l/m2 in 6 Std. Regen
Ortszeit Niederschlagsmenge Niederschlagsart
Mi, 08.07. 11:30 0.0 l/m2 in 1 Std. -
Mi, 08.07. 11:20 keine Meldung -
Mi, 08.07. 11:10 keine Meldung -
Mi, 08.07. 11:00 0.0 l/m2 in 1 Std. -
Mi, 08.07. 10:50 keine Meldung -
Mi, 08.07. 10:40 keine Meldung -
Mi, 08.07. 10:30 0.0 l/m2 in 1 Std. -
Mi, 08.07. 10:00 0.0 l/m2 in 1 Std. -
Ortszeit Stärke Spitze Richtung
km/h Bft. km/h Grad Sektor
Mi, 08.07. 8:00 4 1 14 210° SW
Mi, 08.07. 2:00 0 0 22 - -
Di, 07.07. 20:00 7 2 30 300° NW
Di, 07.07. 14:00 9 2 24 270° W
Di, 07.07. 8:00 4 1 11 230° SW
Di, 07.07. 2:00 4 1 50 260° W
Mo, 06.07. 20:00 20 4 46 290° W
Mo, 06.07. 14:00 18 3 40 270° W
Ortszeit Stärke Spitze Richtung
km/h Bft. km/h Grad Sektor
Mi, 08.07. 11:30 19 3 31 280° W
Mi, 08.07. 11:20 19 3 - 280° W
Mi, 08.07. 11:10 13 3 - 270° W
Mi, 08.07. 11:00 14 3 29 240° SW
Mi, 08.07. 10:50 14 3 - 240° SW
Mi, 08.07. 10:40 14 3 - 230° SW
Mi, 08.07. 10:30 11 2 28 260° W
Mi, 08.07. 10:00 7 2 22 220° SW
Ortszeit Untergrenze Bedeckung Gattung
total tief tief mittel hoch
Mi, 08.07. 8:00 1800 m 8/8 8/8 - - -
Mi, 08.07. 2:00 3300 m 8/8 8/8 - - -
Di, 07.07. 20:00 2100 m 7/8 7/8 - - -
Di, 07.07. 14:00 1800 m 7/8 7/8 - - -
Di, 07.07. 8:00 - 0/8 0/8 - - -
Di, 07.07. 2:00 - 0/8 0/8 - - -
Mo, 06.07. 20:00 2400 m 4/8 4/8 - - -
Mo, 06.07. 14:00 1500 m 3/8 3/8 - - -
Ortszeit Bedeckungsgrad in Achtel und Wolkenuntergrenze
Mi, 08.07. 11:30 7(1800m) 8(2100m)
Mi, 08.07. 11:20 7(1800m) 8(2100m)
Mi, 08.07. 11:10 7(1500m) 7(2100m)
Mi, 08.07. 11:00 2(1440m) 7(2100m) 8(2700m)
Mi, 08.07. 10:50 2(1440m) 7(2100m) 8(2700m)
Mi, 08.07. 10:40 3(1500m) 7(2100m) 8(2700m)
Mi, 08.07. 10:30 6(1800m) 8(3000m) 8(5700m)
Mi, 08.07. 10:00 7(1800m) 8(3600m) 8(5700m)
Ortszeit Luftdruck NN (hPa) Tendenz (hPa in 3 Std.)
Mi, 08.07. 8:00 1016 - 0,4
Mi, 08.07. 2:00 1018 - 0,6
Di, 07.07. 20:00 1018 - 0,8
Di, 07.07. 14:00 1020 - 0,6
Di, 07.07. 8:00 1022 + 0,3
Di, 07.07. 2:00 1022 + 0,9
Mo, 06.07. 20:00 1016 + 1,5
Mo, 06.07. 14:00 1013 + 0,7
Ortszeit Luftdruck NN (hPa) Tendenz (hPa in 3 Std.)
Mi, 08.07. 11:30 1016 - 0,1
Mi, 08.07. 11:20 1016 keine Meldung
Mi, 08.07. 11:10 1016 keine Meldung
Mi, 08.07. 11:00 1016 - 0,2
Mi, 08.07. 10:50 1016 keine Meldung
Mi, 08.07. 10:40 1016 keine Meldung
Mi, 08.07. 10:30 1016 - 0,3
Mi, 08.07. 10:00 1016 - 0,4
Ortszeit Schneehöhe (cm)
Mi, 08.07. 8:00 -
Mi, 08.07. 2:00 -
Di, 07.07. 20:00 -
Di, 07.07. 14:00 -
Di, 07.07. 8:00 -
Di, 07.07. 2:00 -
Mo, 06.07. 20:00 -
Mo, 06.07. 14:00 -
Ortszeit Schneehöhe (cm)
Mi, 08.07. 11:30 -
Mi, 08.07. 11:20 -
Mi, 08.07. 11:10 -
Mi, 08.07. 11:00 -
Mi, 08.07. 10:50 -
Mi, 08.07. 10:40 -
Mi, 08.07. 10:30 -
Mi, 08.07. 10:00 -
Link zu dieser Seite / Seite empfehlen

Das Wetter in ...